Time;durP1;ratioP1;P1;durP2;ratioP2;P2;SDS_P1;SDS_P2;PMS_P1;PMS_P2;Temp;Humidity;BMP_temperature;BMP_pressure;BME280_temperature;BME280_humidity;BME280_pressure;Samples;Min_cycle;Max_cycle;Signal;HPM_P1;HPM_P2
2022/01/21 00:01:41;;;;;;;13.63;6.07;;;5.50;99.90;;;;;;4955696;29;20027;-75
2022/01/21 00:04:08;;;;;;;23.52;12.13;;;5.50;99.90;;;;;;4955205;28;20478;-75
2022/01/21 00:06:33;;;;;;;23.33;10.75;;;5.60;99.90;;;;;;4955059;29;20087;-76
2022/01/21 00:08:59;;;;;;;16.92;10.02;;;5.60;99.90;;;;;;4955335;29;20501;-76
2022/01/21 00:11:30;;;;;;;19.77;9.27;;;5.50;99.90;;;;;;4955406;29;20031;-75
2022/01/21 00:13:56;;;;;;;22.25;9.43;;;5.60;99.90;;;;;;4955465;29;20019;-75
2022/01/21 00:16:24;;;;;;;18.58;8.10;;;5.60;99.90;;;;;;4955167;29;20027;-75
2022/01/21 00:19:05;;;;;;;18.75;9.38;;;5.70;99.90;;;;;;4955150;29;20572;-76
2022/01/21 00:32:32;;;;;;;30.85;15.85;;;5.50;99.90;;;;;;4954908;29;20085;-76
2022/01/21 00:34:58;;;;;;;30.90;15.48;;;5.60;99.90;;;;;;4954982;29;20034;-75
2022/01/21 00:37:23;;;;;;;19.38;10.02;;;5.60;99.90;;;;;;4954915;29;20106;-77
2022/01/21 00:39:54;;;;;;;17.10;8.68;;;5.60;99.90;;;;;;4954836;29;20147;-76
2022/01/21 00:44:46;;;;;;;22.23;8.55;;;5.60;99.90;;;;;;4955445;29;20029;-76
2022/01/21 00:47:12;;;;;;;18.02;8.05;;;5.50;99.90;;;;;;4955401;29;20028;-76
2022/01/21 00:49:37;;;;;;;17.73;7.75;;;5.50;99.90;;;;;;4954909;29;20078;-77
2022/01/21 00:52:03;;;;;;;16.00;7.20;;;5.50;99.90;;;;;;4955049;29;20062;-74
2022/01/21 00:54:29;;;;;;;13.35;6.25;;;5.50;99.90;;;;;;4955079;29;20019;-76
2022/01/21 00:56:55;;;;;;;14.05;7.10;;;5.50;99.90;;;;;;4937608;29;20027;-75
2022/01/21 00:59:21;;;;;;;16.95;7.32;;;5.50;99.90;;;;;;4954771;29;20110;-74
2022/01/21 01:01:47;;;;;;;15.00;6.13;;;5.60;99.90;;;;;;4955030;29;20024;-76
2022/01/21 01:04:12;;;;;;;15.20;6.18;;;5.50;99.90;;;;;;4954642;28;20031;-76
2022/01/21 01:06:38;;;;;;;16.70;7.00;;;5.50;99.90;;;;;;4954503;29;20110;-74
2022/01/21 01:09:04;;;;;;;17.55;7.40;;;5.40;99.90;;;;;;4957870;28;20034;-76
2022/01/21 01:22:14;;;;;;;19.98;9.05;;;5.40;99.90;;;;;;4958425;29;20034;-75
2022/01/21 01:29:59;;;;;;;20.40;8.02;;;5.40;99.90;;;;;;4958513;29;20034;-76
2022/01/21 01:32:27;;;;;;;16.63;8.38;;;5.30;99.90;;;;;;4958052;29;20023;-77
2022/01/21 01:34:52;;;;;;;16.23;8.18;;;5.30;99.90;;;;;;4958192;29;20075;-76
2022/01/21 01:40:13;;;;;;;20.00;9.95;;;5.30;99.90;;;;;;4957609;29;20023;-75
2022/01/21 01:50:37;;;;;;;23.73;10.70;;;5.20;99.90;;;;;;4957643;29;20033;-76
2022/01/21 01:53:07;;;;;;;17.92;9.68;;;5.20;99.90;;;;;;4957748;29;20027;-76
2022/01/21 01:55:34;;;;;;;21.65;11.55;;;5.20;99.90;;;;;;4957802;29;20016;-75
2022/01/21 01:57:59;;;;;;;18.83;8.80;;;5.20;99.90;;;;;;4957717;29;20031;-75
2022/01/21 02:00:25;;;;;;;18.58;10.07;;;5.20;99.90;;;;;;4957491;29;20445;-74
2022/01/21 02:02:51;;;;;;;27.10;9.90;;;5.20;99.90;;;;;;4957913;28;20035;-75
2022/01/21 02:05:17;;;;;;;19.27;10.18;;;5.20;99.90;;;;;;4957604;29;20031;-76
2022/01/21 02:07:42;;;;;;;21.40;10.70;;;5.20;99.90;;;;;;4957054;29;20101;-75
2022/01/21 02:10:08;;;;;;;22.10;9.77;;;5.20;99.90;;;;;;4957446;29;20461;-76
2022/01/21 02:12:35;;;;;;;19.60;9.25;;;5.10;99.90;;;;;;4957756;29;20038;-75
2022/01/21 02:15:02;;;;;;;19.38;9.20;;;5.10;99.90;;;;;;4957474;29;20027;-76
2022/01/21 02:22:41;;;;;;;19.52;8.75;;;5.20;99.90;;;;;;4956865;29;20034;-77
2022/01/21 02:25:19;;;;;;;16.20;7.60;;;5.10;99.90;;;;;;4957895;29;20039;-76
2022/01/21 02:27:47;;;;;;;17.80;7.75;;;5.10;99.90;;;;;;4939309;29;20482;-76
2022/01/21 02:30:19;;;;;;;18.58;8.48;;;5.20;99.90;;;;;;4956803;29;20082;-77
2022/01/21 02:32:50;;;;;;;16.65;8.40;;;5.20;99.90;;;;;;4957368;29;20024;-76
2022/01/21 02:35:17;;;;;;;17.98;8.48;;;5.20;99.90;;;;;;4957330;29;20042;-76
2022/01/21 02:37:43;;;;;;;15.60;8.63;;;5.20;99.90;;;;;;4956787;29;20157;-75
2022/01/21 02:40:11;;;;;;;14.18;7.78;;;5.20;99.90;;;;;;4956728;29;20030;-76
2022/01/21 02:42:37;;;;;;;15.93;7.65;;;5.30;99.90;;;;;;4956652;29;20080;-74
2022/01/21 02:45:08;;;;;;;16.70;7.68;;;5.30;99.90;;;;;;4956976;29;20023;-75
2022/01/21 02:47:33;;;;;;;;;;;5.30;99.90;;;;;;4957558;29;20031;-76
2022/01/21 02:49:59;;;;;;;19.02;8.07;;;5.20;99.90;;;;;;4956659;29;19911;-77
2022/01/21 02:52:28;;;;;;;18.10;7.88;;;5.30;99.90;;;;;;4939276;29;20074;-76
2022/01/21 02:54:54;;;;;;;21.67;8.82;;;5.20;99.90;;;;;;4956808;29;20086;-75
2022/01/21 02:57:20;;;;;;;18.23;7.65;;;5.30;99.90;;;;;;4955221;29;20031;-75
2022/01/21 02:59:45;;;;;;;16.48;7.65;;;5.30;99.90;;;;;;4939261;29;20552;-75
2022/01/21 03:02:12;;;;;;;17.60;7.93;;;5.30;99.90;;;;;;4956291;29;20094;-76
2022/01/21 03:05:03;;;;;;;14.85;7.85;;;5.30;99.90;;;;;;4955959;28;20449;-75
2022/01/21 03:07:26;;;;;;;16.95;8.63;;;5.30;99.90;;;;;;4955248;29;20063;-75
2022/01/21 03:09:51;;;;;;;19.67;9.13;;;5.40;99.90;;;;;;4956456;29;20077;-75
2022/01/21 03:12:17;;;;;;;44.85;21.67;;;5.30;99.90;;;;;;4956414;29;20023;-76
2022/01/21 03:14:42;;;;;;;41.30;18.73;;;5.40;99.90;;;;;;4956364;29;20031;-76
2022/01/21 03:17:08;;;;;;;33.55;15.82;;;5.40;99.90;;;;;;4954741;29;20030;-75
2022/01/21 03:19:34;;;;;;;22.80;10.25;;;5.40;99.90;;;;;;4956247;29;20027;-76
2022/01/21 03:22:01;;;;;;;16.42;8.05;;;5.40;99.90;;;;;;4955912;29;20035;-76
2022/01/21 03:24:27;;;;;;;14.27;7.20;;;5.40;99.90;;;;;;4954728;29;20457;-75
2022/01/21 03:26:52;;;;;;;16.33;8.55;;;5.30;99.90;;;;;;4956162;29;20024;-75
2022/01/21 03:29:18;;;;;;;14.00;8.30;;;5.30;99.90;;;;;;4956316;29;20035;-75
2022/01/21 03:31:43;;;;;;;23.83;11.85;;;5.30;99.90;;;;;;4953566;28;20019;-76
2022/01/21 03:34:09;;;;;;;30.92;15.50;;;5.30;99.90;;;;;;4955786;29;20043;-75
2022/01/21 03:36:35;;;;;;;41.65;18.35;;;5.30;99.90;;;;;;4955740;29;20047;-76
2022/01/21 03:39:03;;;;;;;122.68;61.05;;;5.20;99.90;;;;;;4955578;29;20023;-75
2022/01/21 03:41:28;;;;;;;24.40;12.85;;;5.20;99.90;;;;;;4955621;29;20528;-75
2022/01/21 03:43:54;;;;;;;21.40;11.27;;;5.30;99.90;;;;;;4955864;29;20031;-75
2022/01/21 03:46:20;;;;;;;17.70;7.80;;;5.30;99.90;;;;;;4955825;29;20028;-75
2022/01/21 03:48:48;;;;;;;15.40;8.18;;;5.40;99.90;;;;;;4955452;29;20039;-75
2022/01/21 03:51:14;;;;;;;15.50;8.43;;;5.30;99.90;;;;;;4955556;29;20019;-76
2022/01/21 03:53:40;;;;;;;13.95;7.38;;;5.30;99.90;;;;;;4955636;29;20039;-76
2022/01/21 03:56:06;;;;;;;16.55;6.50;;;5.30;99.90;;;;;;4955450;29;20024;-75
2022/01/21 03:58:31;;;;;;;16.70;7.43;;;5.20;99.90;;;;;;4954056;29;20086;-75
2022/01/21 04:00:57;;;;;;;16.98;7.40;;;5.20;99.90;;;;;;4954038;29;20027;-77
2022/01/21 04:03:24;;;;;;;11.85;6.22;;;5.30;99.90;;;;;;4955245;28;20505;-76
2022/01/21 04:05:51;;;;;;;14.90;6.38;;;5.20;99.90;;;;;;4955265;29;20478;-75
2022/01/21 04:08:17;;;;;;;11.95;5.82;;;5.20;99.90;;;;;;4955137;29;20038;-76
2022/01/21 04:10:42;;;;;;;12.95;6.47;;;5.30;99.90;;;;;;4955463;29;20024;-75
2022/01/21 04:13:16;;;;;;;15.23;6.82;;;5.30;99.90;;;;;;4955267;29;20042;-75
2022/01/21 04:15:45;;;;;;;13.80;5.90;;;5.30;99.90;;;;;;4955516;29;20082;-76
2022/01/21 04:18:13;;;;;;;14.00;5.88;;;5.30;99.90;;;;;;4955113;29;20046;-75
2022/01/21 04:20:39;;;;;;;13.60;7.97;;;5.40;99.90;;;;;;4955061;29;20046;-77
2022/01/21 04:23:05;;;;;;;14.40;8.60;;;5.40;99.90;;;;;;4955345;29;20481;-76
2022/01/21 04:25:31;;;;;;;16.50;7.93;;;5.30;99.90;;;;;;4955079;29;20027;-75
2022/01/21 04:27:57;;;;;;;13.85;7.05;;;5.40;99.90;;;;;;4954945;29;20027;-74
2022/01/21 04:30:23;;;;;;;18.42;8.70;;;5.40;99.90;;;;;;4955310;29;20018;-75
2022/01/21 04:32:48;;;;;;;14.85;8.05;;;5.40;99.90;;;;;;4955023;29;20145;-76
2022/01/21 04:35:14;;;;;;;14.98;8.32;;;5.40;99.90;;;;;;4954988;29;20027;-76
2022/01/21 04:37:47;;;;;;;14.20;7.88;;;5.40;99.90;;;;;;4954961;29;20486;-76
2022/01/21 04:40:16;;;;;;;13.65;8.10;;;5.40;99.90;;;;;;4955248;29;20078;-76
2022/01/21 04:48:10;;;;;;;11.70;6.50;;;5.50;99.90;;;;;;4958491;29;20102;-75
2022/01/21 04:50:42;;;;;;;9.80;6.03;;;5.50;99.90;;;;;;4958656;29;20027;-75
2022/01/21 04:53:08;;;;;;;12.02;6.05;;;5.50;99.90;;;;;;4958999;29;20027;-76
2022/01/21 04:55:35;;;;;;;12.90;6.20;;;5.50;99.90;;;;;;4958674;29;20047;-76
2022/01/21 04:58:00;;;;;;;14.20;6.82;;;5.50;99.90;;;;;;4958551;29;20062;-76
2022/01/21 05:00:27;;;;;;;14.50;6.55;;;5.40;99.90;;;;;;4958849;29;20054;-75
2022/01/21 05:02:53;;;;;;;11.98;6.05;;;5.40;99.90;;;;;;4958681;28;20069;-75
2022/01/21 05:05:18;;;;;;;15.18;6.03;;;5.40;99.90;;;;;;4958380;29;20023;-76
2022/01/21 05:07:44;;;;;;;11.65;6.30;;;5.40;99.90;;;;;;4957977;29;20050;-75
2022/01/21 05:10:10;;;;;;;12.18;5.75;;;5.30;99.90;;;;;;4958337;29;20404;-75
2022/01/21 05:12:36;;;;;;;17.10;6.22;;;5.30;99.90;;;;;;4958326;29;20023;-76
2022/01/21 05:15:17;;;;;;;9.60;5.53;;;5.40;99.90;;;;;;4958278;29;20015;-76
2022/01/21 05:17:48;;;;;;;10.73;5.10;;;5.40;99.90;;;;;;4958481;29;20038;-75
2022/01/21 05:20:14;;;;;;;16.10;6.28;;;5.50;99.90;;;;;;4958457;29;20032;-75
2022/01/21 05:22:40;;;;;;;12.25;5.95;;;5.50;99.90;;;;;;4958373;29;20057;-76
2022/01/21 05:25:06;;;;;;;12.05;5.97;;;5.40;99.90;;;;;;4957784;29;20034;-75
2022/01/21 05:27:32;;;;;;;11.95;6.55;;;5.30;99.90;;;;;;4957959;29;20094;-75
2022/01/21 05:29:57;;;;;;;13.07;5.53;;;5.30;99.90;;;;;;4957968;29;20485;-75
2022/01/21 05:32:23;;;;;;;13.65;5.55;;;5.20;99.90;;;;;;4958031;29;20375;-75
2022/01/21 05:34:49;;;;;;;12.88;5.80;;;5.20;99.90;;;;;;4957993;29;20460;-75
2022/01/21 05:37:15;;;;;;;10.68;5.40;;;5.10;99.90;;;;;;4958203;29;20026;-75
2022/01/21 05:39:40;;;;;;;12.73;7.38;;;5.10;99.90;;;;;;4958105;29;20473;-77
2022/01/21 05:42:07;;;;;;;14.82;6.60;;;5.00;99.90;;;;;;4957816;29;20030;-76
2022/01/21 05:47:00;;;;;;;12.02;5.43;;;5.10;99.90;;;;;;4957958;29;20071;-75
2022/01/21 05:49:29;;;;;;;12.00;5.13;;;5.10;99.90;;;;;;4957776;29;20027;-76
2022/01/21 05:52:08;;;;;;;12.85;5.38;;;5.20;99.90;;;;;;4957820;29;20097;-76
2022/01/21 05:54:34;;;;;;;15.18;5.45;;;5.20;99.90;;;;;;4939005;29;20054;-77
2022/01/21 05:57:02;;;;;;;19.77;5.47;;;5.10;99.90;;;;;;4957542;29;20517;-75
2022/01/21 05:59:27;;;;;;;11.65;5.53;;;5.10;99.90;;;;;;4940267;29;20123;-75
2022/01/21 06:01:53;;;;;;;9.30;5.18;;;5.10;99.90;;;;;;4957774;29;20106;-75
2022/01/21 06:04:19;;;;;;;12.38;6.40;;;5.20;99.90;;;;;;4957349;28;20035;-75
2022/01/21 06:06:45;;;;;;;14.45;6.38;;;5.00;99.90;;;;;;4957207;29;20046;-75
2022/01/21 06:09:10;;;;;;;11.90;5.63;;;5.00;99.90;;;;;;4957186;29;20032;-75
2022/01/21 06:11:36;;;;;;;14.77;7.22;;;5.00;99.90;;;;;;4957565;29;20026;-75
2022/01/21 06:14:03;;;;;;;12.10;5.88;;;5.00;99.90;;;;;;4957292;29;20104;-76
2022/01/21 06:16:29;;;;;;;12.70;5.80;;;5.00;99.90;;;;;;4939863;29;20039;-75
2022/01/21 06:18:55;;;;;;;11.13;6.03;;;5.00;99.90;;;;;;4957160;29;20454;-75
2022/01/21 06:21:22;;;;;;;11.77;5.57;;;5.10;99.90;;;;;;4957092;29;20035;-76
2022/01/21 06:23:47;;;;;;;12.43;5.18;;;5.00;99.90;;;;;;4957057;29;20405;-76
2022/01/21 06:26:13;;;;;;;9.52;6.05;;;5.10;99.90;;;;;;4957056;29;20026;-76
2022/01/21 06:28:39;;;;;;;15.20;6.10;;;5.00;99.90;;;;;;4956912;29;20069;-76
2022/01/21 06:31:05;;;;;;;10.70;5.63;;;5.00;99.90;;;;;;4956988;29;20034;-75
2022/01/21 06:33:31;;;;;;;13.02;5.75;;;5.00;99.90;;;;;;4956880;29;20023;-76
2022/01/21 06:35:57;;;;;;;12.10;5.45;;;5.00;99.90;;;;;;4957021;29;20023;-76
2022/01/21 06:38:24;;;;;;;11.57;5.22;;;5.00;99.90;;;;;;4957040;29;20107;-76
2022/01/21 06:40:50;;;;;;;9.70;5.18;;;4.90;99.90;;;;;;4956866;29;20101;-75
2022/01/21 06:43:16;;;;;;;13.63;5.95;;;4.90;99.90;;;;;;4956656;29;20570;-76
2022/01/21 06:45:43;;;;;;;12.77;5.70;;;4.90;99.90;;;;;;4956487;29;20027;-76
2022/01/21 06:48:09;;;;;;;12.15;5.60;;;4.90;99.90;;;;;;4956570;29;20086;-76
2022/01/21 06:50:39;;;;;;;11.48;6.10;;;4.80;99.90;;;;;;4956515;29;20082;-75
2022/01/21 06:53:05;;;;;;;11.15;4.97;;;4.90;99.90;;;;;;4956538;29;20022;-77
2022/01/21 06:55:31;;;;;;;14.68;5.95;;;4.90;99.90;;;;;;4956439;29;20027;-75
2022/01/21 06:57:57;;;;;;;11.25;5.38;;;4.90;99.90;;;;;;4956445;29;20094;-74
2022/01/21 07:00:23;;;;;;;11.38;4.93;;;4.90;99.90;;;;;;4956337;29;20038;-75
2022/01/21 07:02:50;;;;;;;14.48;6.10;;;5.00;99.90;;;;;;4956284;28;20058;-76
2022/01/21 07:05:17;;;;;;;15.68;7.63;;;5.00;99.90;;;;;;4956173;28;20035;-75
2022/01/21 07:07:43;;;;;;;19.58;6.90;;;5.00;99.90;;;;;;4955821;29;20502;-75
2022/01/21 07:10:14;;;;;;;11.23;5.45;;;5.00;99.90;;;;;;4956150;29;20031;-77
2022/01/21 07:12:41;;;;;;;11.50;5.40;;;5.00;99.90;;;;;;4956468;29;20531;-75
2022/01/21 07:15:08;;;;;;;15.80;5.55;;;5.00;99.90;;;;;;4956083;29;20055;-75
2022/01/21 07:17:34;;;;;;;15.65;7.45;;;5.00;99.90;;;;;;4955939;29;20095;-76
2022/01/21 07:20:00;;;;;;;12.15;6.68;;;4.90;99.90;;;;;;4955956;29;20034;-76
2022/01/21 07:22:26;;;;;;;9.48;5.15;;;5.00;99.90;;;;;;4955944;29;20051;-75
2022/01/21 07:24:53;;;;;;;10.57;5.22;;;4.90;99.90;;;;;;4956127;29;20125;-76
2022/01/21 07:27:19;;;;;;;8.70;5.10;;;4.80;99.90;;;;;;4955899;29;20470;-76
2022/01/21 07:29:45;;;;;;;10.32;4.90;;;4.90;99.90;;;;;;4955827;29;20031;-76
2022/01/21 07:32:11;;;;;;;10.48;5.72;;;4.90;99.90;;;;;;4955781;29;20034;-75
2022/01/21 07:34:36;;;;;;;12.43;6.03;;;4.80;99.90;;;;;;4955827;29;20562;-75
2022/01/21 07:37:03;;;;;;;10.00;5.55;;;4.80;99.90;;;;;;4956019;29;20019;-73
2022/01/21 07:39:29;;;;;;;13.65;5.72;;;4.80;99.90;;;;;;4938389;29;20074;-74
2022/01/21 07:41:55;;;;;;;13.07;5.50;;;4.80;99.90;;;;;;4955592;29;20055;-74
2022/01/21 07:44:20;;;;;;;11.90;5.60;;;4.80;99.90;;;;;;4955566;29;20031;-74
2022/01/21 07:46:47;;;;;;;13.43;5.15;;;4.80;99.90;;;;;;4955882;29;20027;-73
2022/01/21 07:49:13;;;;;;;11.00;5.75;;;4.70;99.90;;;;;;4955504;29;20114;-74
2022/01/21 07:51:40;;;;;;;18.77;10.90;;;4.70;99.90;;;;;;4955386;29;20023;-74
2022/01/21 07:54:06;;;;;;;13.38;7.78;;;4.70;99.90;;;;;;4955456;29;20470;-72
2022/01/21 07:56:33;;;;;;;14.40;7.88;;;4.80;99.90;;;;;;4955470;29;20022;-73
2022/01/21 07:59:03;;;;;;;29.25;17.63;;;4.80;99.90;;;;;;4955339;29;20481;-74
2022/01/21 08:01:29;;;;;;;13.38;7.20;;;4.80;99.90;;;;;;4954106;29;20058;-76
2022/01/21 08:03:54;;;;;;;11.55;5.60;;;4.90;99.90;;;;;;4955583;28;20059;-77
2022/01/21 08:06:20;;;;;;;13.45;5.28;;;5.00;99.90;;;;;;4955351;29;20529;-78
2022/01/21 08:08:46;;;;;;;8.68;4.80;;;5.00;99.90;;;;;;4955772;29;20450;-76
2022/01/21 08:11:12;;;;;;;13.02;4.82;;;5.00;99.90;;;;;;4955277;29;20031;-77
2022/01/21 08:13:37;;;;;;;9.90;4.90;;;4.90;99.90;;;;;;4955418;29;20031;-74
2022/01/21 08:16:03;;;;;;;9.43;4.72;;;4.90;99.90;;;;;;4955377;29;20015;-77
2022/01/21 08:18:30;;;;;;;11.00;6.07;;;4.90;99.90;;;;;;4937364;29;20031;-75
2022/01/21 08:20:56;;;;;;;15.13;8.45;;;4.80;99.90;;;;;;4955305;29;20445;-74
2022/01/21 08:23:21;;;;;;;14.82;7.55;;;4.90;99.90;;;;;;4955207;29;20039;-75
2022/01/21 08:25:47;;;;;;;11.55;5.82;;;4.80;99.90;;;;;;4955031;29;20027;-75
2022/01/21 08:28:13;;;;;;;13.30;6.70;;;4.80;99.90;;;;;;4955318;29;20089;-75
2022/01/21 08:30:39;;;;;;;14.25;7.05;;;4.80;99.90;;;;;;4955654;29;20363;-74
2022/01/21 08:33:05;;;;;;;15.05;11.30;;;4.90;99.90;;;;;;4955299;29;20023;-75
2022/01/21 08:35:32;;;;;;;11.25;6.55;;;4.90;99.90;;;;;;4955249;29;20046;-77
2022/01/21 08:37:58;;;;;;;16.02;6.50;;;4.90;99.90;;;;;;4954968;29;20034;-76
2022/01/21 08:40:25;;;;;;;11.38;6.18;;;5.00;99.90;;;;;;4938075;29;20039;-75
2022/01/21 08:42:51;;;;;;;14.38;6.65;;;5.10;99.90;;;;;;4937581;29;20406;-75
2022/01/21 08:45:17;;;;;;;14.77;6.18;;;5.20;99.90;;;;;;4955107;29;20024;-75
2022/01/21 08:47:43;;;;;;;24.60;7.57;;;5.20;99.90;;;;;;4954874;29;20031;-76
2022/01/21 08:50:12;;;;;;;13.57;5.95;;;5.30;99.90;;;;;;4955172;29;20482;-75
2022/01/21 08:52:41;;;;;;;11.75;6.05;;;5.20;99.90;;;;;;4954906;29;20027;-75
2022/01/21 08:55:19;;;;;;;12.15;5.38;;;5.40;99.90;;;;;;4955115;29;20051;-75
2022/01/21 08:57:47;;;;;;;14.95;7.03;;;5.40;99.90;;;;;;4955069;29;20023;-75
2022/01/21 09:00:20;;;;;;;13.35;7.55;;;5.40;99.90;;;;;;4954884;29;20027;-75
2022/01/21 09:02:47;;;;;;;12.48;6.60;;;5.40;99.90;;;;;;4954553;28;20115;-76
2022/01/21 09:05:13;;;;;;;12.27;6.07;;;5.40;99.90;;;;;;4954960;29;20028;-75
2022/01/21 09:07:40;;;;;;;16.63;6.35;;;5.40;99.90;;;;;;4954705;29;20062;-74
2022/01/21 09:10:06;;;;;;;12.40;7.13;;;5.40;99.90;;;;;;4954576;29;20078;-78
2022/01/21 09:12:32;;;;;;;27.13;14.88;;;5.40;99.90;;;;;;4955173;29;20161;-76
2022/01/21 09:14:58;;;;;;;12.45;7.97;;;5.40;99.90;;;;;;4955062;29;20146;-76
2022/01/21 09:17:24;;;;;;;13.27;7.05;;;5.40;99.90;;;;;;4954663;29;20030;-74
2022/01/21 09:19:49;;;;;;;12.80;8.73;;;5.50;99.90;;;;;;4936269;29;20031;-72
2022/01/21 09:22:15;;;;;;;9.50;4.78;;;5.50;99.90;;;;;;4953382;29;20035;-72
2022/01/21 09:24:41;;;;;;;10.85;4.95;;;5.50;99.90;;;;;;4952895;29;20473;-75
2022/01/21 09:27:07;;;;;;;10.50;4.78;;;5.50;99.90;;;;;;4954364;29;20106;-76
2022/01/21 09:29:34;;;;;;;8.45;5.13;;;5.50;99.90;;;;;;4956796;28;20058;-75
2022/01/21 09:32:00;;;;;;;11.20;5.45;;;5.60;99.90;;;;;;4957106;29;20020;-74
2022/01/21 09:34:27;;;;;;;13.18;5.50;;;5.80;99.90;;;;;;4958081;29;20078;-76
2022/01/21 09:36:55;;;;;;;15.27;8.25;;;6.10;99.90;;;;;;4958089;28;20027;-77
2022/01/21 09:39:21;;;;;;;19.45;8.52;;;6.50;99.90;;;;;;4958007;29;20444;-75
2022/01/21 09:41:48;;;;;;;12.60;6.70;;;6.80;99.90;;;;;;4958230;29;20051;-77
2022/01/21 09:44:16;;;;;;;15.38;7.63;;;7.20;99.90;;;;;;4940584;29;20038;-75
2022/01/21 09:46:47;;;;;;;11.32;5.03;;;7.40;99.90;;;;;;4958001;29;20485;-75
2022/01/21 09:49:26;;;;;;;12.32;5.50;;;7.50;99.90;;;;;;4958077;29;20111;-76
2022/01/21 09:52:13;;;;;;;13.85;6.07;;;7.80;99.90;;;;;;4940207;29;20023;-77
2022/01/21 09:54:45;;;;;;;19.25;6.15;;;8.00;99.90;;;;;;4957693;29;20413;-76
2022/01/21 09:57:24;;;;;;;13.20;5.55;;;8.00;99.90;;;;;;4957470;29;20437;-75
2022/01/21 09:59:52;;;;;;;12.07;5.15;;;7.70;99.90;;;;;;4957542;29;20036;-76
2022/01/21 10:02:24;;;;;;;13.02;5.10;;;7.60;99.90;;;;;;4958042;28;20065;-76
2022/01/21 10:04:52;;;;;;;14.18;5.70;;;7.70;99.90;;;;;;4957729;29;20090;-75
2022/01/21 10:07:19;;;;;;;17.50;8.63;;;7.50;99.90;;;;;;4957133;29;20456;-76
2022/01/21 10:09:47;;;;;;;18.13;8.38;;;7.50;99.90;;;;;;4957219;29;20122;-74
2022/01/21 10:12:13;;;;;;;12.85;4.82;;;7.50;99.90;;;;;;4957246;29;20043;-75
2022/01/21 10:14:41;;;;;;;13.23;5.50;;;7.40;99.90;;;;;;4957306;29;20023;-75
2022/01/21 10:17:08;;;;;;;13.43;5.45;;;7.30;99.90;;;;;;4957189;29;20016;-76
2022/01/21 10:19:36;;;;;;;10.93;5.47;;;7.20;99.90;;;;;;4940225;29;20045;-76
2022/01/21 10:22:12;;;;;;;10.55;4.10;;;7.20;99.90;;;;;;4939735;29;20066;-75
2022/01/21 10:24:58;;;;;;;11.45;4.95;;;7.20;99.90;;;;;;4957390;29;20489;-76
2022/01/21 10:27:32;;;;;;;9.48;4.18;;;7.20;99.90;;;;;;4939528;29;20397;-75
2022/01/21 10:29:58;;;;;;;13.10;3.67;;;6.90;99.90;;;;;;4957217;29;20465;-75
2022/01/21 10:32:38;;;;;;;11.15;3.60;;;6.70;99.90;;;;;;4956891;29;20397;-76
2022/01/21 10:35:17;;;;;;;17.85;3.65;;;6.70;99.90;;;;;;4956876;29;20102;-75
2022/01/21 10:37:43;;;;;;;10.20;3.40;;;6.70;99.90;;;;;;4939317;29;20063;-76
2022/01/21 10:40:10;;;;;;;11.50;3.72;;;6.80;99.90;;;;;;4956318;28;20430;-75
2022/01/21 10:42:37;;;;;;;14.80;3.72;;;6.90;99.90;;;;;;4957130;29;20074;-76
2022/01/21 10:45:05;;;;;;;8.00;3.28;;;7.00;99.90;;;;;;4956672;29;20481;-76
2022/01/21 10:47:34;;;;;;;14.15;4.68;;;7.10;99.90;;;;;;4956639;29;20027;-77
2022/01/21 10:50:11;;;;;;;15.40;6.00;;;7.00;99.90;;;;;;4957045;29;20031;-74
2022/01/21 10:52:49;;;;;;;18.67;6.40;;;7.00;99.90;;;;;;4956974;29;20102;-76
2022/01/21 10:55:35;;;;;;;16.83;5.95;;;7.00;99.90;;;;;;4956827;29;20102;-76
2022/01/21 10:58:07;;;;;;;13.30;5.03;;;7.20;99.90;;;;;;4956485;29;20497;-75
2022/01/21 11:00:34;;;;;;;11.15;3.70;;;7.30;99.90;;;;;;4956701;29;20030;-75
2022/01/21 11:03:14;;;;;;;11.52;3.00;;;7.10;99.90;;;;;;4956366;28;20071;-76
2022/01/21 11:05:44;;;;;;;13.32;3.25;;;7.10;99.90;;;;;;4956980;29;20038;-75
2022/01/21 11:08:11;;;;;;;13.20;3.60;;;7.10;99.90;;;;;;4955935;29;20039;-76
2022/01/21 11:10:48;;;;;;;14.18;3.88;;;7.10;99.90;;;;;;4956228;29;20506;-76
2022/01/21 11:13:20;;;;;;;13.80;3.22;;;7.10;99.90;;;;;;4956715;29;20034;-76
2022/01/21 11:15:54;;;;;;;10.30;3.38;;;7.10;99.90;;;;;;4956475;29;20020;-76
2022/01/21 11:18:21;;;;;;;16.38;3.45;;;7.10;99.90;;;;;;4956147;29;20534;-75
2022/01/21 11:20:49;;;;;;;11.77;3.15;;;7.00;99.90;;;;;;4954777;29;20509;-76
2022/01/21 11:23:17;;;;;;;12.88;3.10;;;7.00;99.90;;;;;;4956021;29;20019;-75
2022/01/21 11:25:51;;;;;;;7.00;3.17;;;7.00;99.90;;;;;;4955999;29;20442;-76
2022/01/21 11:28:17;;;;;;;17.58;5.18;;;7.00;99.90;;;;;;4955842;29;20029;-77
2022/01/21 11:30:44;;;;;;;16.77;4.80;;;7.00;99.90;;;;;;4956076;29;20155;-77
2022/01/21 11:33:10;;;;;;;8.82;3.13;;;7.10;99.90;;;;;;4955858;29;20030;-76
2022/01/21 11:35:36;;;;;;;13.35;3.95;;;7.30;99.90;;;;;;4955699;29;20024;-74
2022/01/21 11:38:06;;;;;;;15.98;5.20;;;7.20;99.90;;;;;;4956291;29;20370;-76
2022/01/21 11:40:32;;;;;;;13.70;5.00;;;7.10;99.90;;;;;;4955661;29;20069;-76
2022/01/21 11:42:58;;;;;;;22.95;10.38;;;7.20;99.90;;;;;;4955657;29;20031;-75
2022/01/21 11:50:38;;;;;;;13.45;4.80;;;7.30;99.90;;;;;;4955275;29;20054;-76
2022/01/21 11:53:07;;;;;;;12.02;4.28;;;7.30;99.90;;;;;;4954765;28;20019;-74
2022/01/21 11:55:45;;;;;;;15.88;5.18;;;7.20;99.90;;;;;;4955753;29;20054;-75
2022/01/21 11:58:23;;;;;;;14.52;8.18;;;7.20;99.90;;;;;;4955738;29;20061;-75
2022/01/21 12:00:51;;;;;;;11.70;3.90;;;7.20;99.90;;;;;;4955452;29;20031;-74
2022/01/21 12:03:23;;;;;;;15.90;5.13;;;7.10;99.90;;;;;;4955297;28;20031;-75
2022/01/21 12:05:50;;;;;;;16.58;8.52;;;7.00;99.90;;;;;;4955435;29;20059;-75
2022/01/21 12:08:36;;;;;;;15.40;6.57;;;7.00;99.90;;;;;;4955530;29;20573;-75
2022/01/21 12:11:37;;;;;;;15.98;5.65;;;7.00;99.90;;;;;;4937779;29;20023;-76
2022/01/21 12:14:32;;;;;;;10.05;4.20;;;7.10;99.90;;;;;;4955532;29;20023;-76
2022/01/21 12:17:12;;;;;;;13.93;5.75;;;7.00;99.90;;;;;;4955164;29;20019;-76
2022/01/21 12:19:40;;;;;;;13.52;4.43;;;7.10;99.90;;;;;;4955764;29;20023;-76
2022/01/21 12:22:18;;;;;;;15.88;9.43;;;7.20;99.90;;;;;;4955403;29;20454;-76
2022/01/21 12:25:02;;;;;;;13.07;5.13;;;7.10;99.90;;;;;;4955147;29;20037;-76
2022/01/21 12:27:28;;;;;;;9.38;4.15;;;7.10;99.90;;;;;;4955429;29;20108;-76
2022/01/21 12:30:25;;;;;;;7.35;3.72;;;7.00;99.90;;;;;;4954934;29;20027;-75
2022/01/21 12:33:07;;;;;;;13.65;4.22;;;7.10;99.90;;;;;;4955637;29;20019;-75
2022/01/21 12:35:34;;;;;;;9.63;3.92;;;7.10;99.90;;;;;;4955370;29;20041;-75
2022/01/21 12:41:00;;;;;;;10.40;3.20;;;7.30;99.90;;;;;;4955281;29;20038;-76
2022/01/21 12:43:46;;;;;;;10.55;4.03;;;7.20;99.90;;;;;;4954916;29;20020;-75
2022/01/21 12:46:16;;;;;;;9.27;3.47;;;7.10;99.90;;;;;;4954609;29;20046;-75
2022/01/21 12:48:47;;;;;;;8.95;2.65;;;7.20;99.90;;;;;;4955139;29;20394;-75
2022/01/21 12:51:16;;;;;;;9.90;2.28;;;7.30;99.90;;;;;;4954844;29;20055;-75
2022/01/21 12:56:41;;;;;;;18.05;3.70;;;7.20;99.90;;;;;;4955168;29;20390;-76
2022/01/21 12:59:07;;;;;;;12.27;2.72;;;7.20;99.90;;;;;;4954751;29;20019;-76
2022/01/21 13:01:37;;;;;;;6.10;2.50;;;7.30;99.90;;;;;;4954818;29;20038;-75
2022/01/21 13:04:11;;;;;;;8.32;2.83;;;7.20;99.90;;;;;;4956321;28;20083;-74
2022/01/21 13:07:05;;;;;;;9.60;2.75;;;7.10;99.90;;;;;;4958597;29;20132;-75
2022/01/21 13:09:55;;;;;;;7.10;2.58;;;7.20;99.90;;;;;;4958607;29;20035;-75
2022/01/21 13:12:24;;;;;;;10.38;3.17;;;7.20;99.90;;;;;;4958468;29;20031;-76
2022/01/21 13:14:55;;;;;;;12.63;3.85;;;7.20;99.90;;;;;;4941158;29;20079;-75
2022/01/21 13:17:21;;;;;;;;;;;7.10;99.90;;;;;;4958721;29;20050;-76
2022/01/21 13:19:52;;;;;;;13.35;3.47;;;7.20;99.90;;;;;;4958528;29;20030;-76
2022/01/21 13:22:31;;;;;;;10.48;3.15;;;7.20;99.90;;;;;;4958551;29;20024;-75
2022/01/21 13:25:13;;;;;;;7.45;2.47;;;7.20;99.90;;;;;;4958547;29;20024;-76
2022/01/21 13:27:50;;;;;;;12.63;2.80;;;7.20;99.90;;;;;;4940619;29;20028;-75
2022/01/21 13:30:18;;;;;;;12.30;2.67;;;7.30;99.90;;;;;;4958083;29;20031;-76
2022/01/21 13:32:45;;;;;;;10.85;2.65;;;7.20;99.90;;;;;;4940849;29;20031;-75
2022/01/21 13:35:15;;;;;;;7.85;2.15;;;7.20;99.90;;;;;;4958001;29;20090;-75
2022/01/21 13:38:00;;;;;;;9.55;2.50;;;7.20;99.90;;;;;;4958452;29;20089;-75
2022/01/21 13:40:28;;;;;;;5.93;2.45;;;7.20;99.90;;;;;;4958377;29;20086;-76
2022/01/21 13:43:06;;;;;;;14.25;2.60;;;7.10;99.90;;;;;;4957748;29;20489;-75
2022/01/21 13:45:31;;;;;;;5.47;1.92;;;7.10;99.90;;;;;;4958100;29;20155;-75
2022/01/21 13:48:03;;;;;;;5.45;2.05;;;7.20;99.90;;;;;;4958008;29;20102;-76
2022/01/21 13:50:30;;;;;;;6.55;1.83;;;7.00;99.90;;;;;;4957790;29;20023;-76
2022/01/21 13:53:06;;;;;;;7.95;2.80;;;7.10;99.90;;;;;;4957737;29;20078;-76
2022/01/21 13:55:42;;;;;;;8.57;1.95;;;7.20;99.90;;;;;;4957847;29;20110;-76
2022/01/21 13:58:08;;;;;;;9.90;2.00;;;7.20;99.90;;;;;;4956312;29;20035;-75
2022/01/21 14:00:37;;;;;;;6.95;2.28;;;7.10;99.90;;;;;;4957813;29;20027;-75